createdAt,value
2023-04-23T00:00:19.029Z,98593.00
2023-04-23T00:01:59.651Z,98605.00
2023-04-23T00:03:34.394Z,98598.00
2023-04-23T00:05:10.189Z,98597.00
2023-04-23T00:06:44.644Z,98596.00
2023-04-23T00:08:19.317Z,98588.00
2023-04-23T00:09:58.480Z,98590.00
2023-04-23T00:11:32.491Z,98579.00
2023-04-23T00:13:05.324Z,98584.00
2023-04-23T00:14:39.097Z,98584.00
2023-04-23T00:16:14.482Z,98583.00
2023-04-23T00:17:49.946Z,98587.00
2023-04-23T00:19:23.174Z,98577.00
2023-04-23T00:20:57.508Z,98588.00
2023-04-23T00:22:30.788Z,98578.00
2023-04-23T00:24:04.262Z,98582.00
2023-04-23T00:25:37.471Z,98574.00
2023-04-23T00:27:10.743Z,98580.00
2023-04-23T00:28:43.901Z,98581.00
2023-04-23T00:30:18.741Z,98591.00
2023-04-23T00:31:52.172Z,98581.00
2023-04-23T00:33:26.899Z,98575.00
2023-04-23T00:35:00.130Z,98573.00
2023-04-23T00:36:38.599Z,98582.00
2023-04-23T00:38:11.811Z,98577.00
2023-04-23T00:39:45.533Z,98576.00
2023-04-23T00:41:20.252Z,98565.00
2023-04-23T00:42:54.632Z,98574.00
2023-04-23T00:44:28.164Z,98575.00
2023-04-23T00:46:01.547Z,98576.00
2023-04-23T00:47:34.709Z,98573.00
2023-04-23T00:49:09.712Z,98565.00
2023-04-23T00:50:43.457Z,98578.00
2023-04-23T00:52:16.220Z,98578.00
2023-04-23T00:53:50.000Z,98572.00
2023-04-23T00:55:23.538Z,98573.00
2023-04-23T00:56:58.476Z,98571.00
2023-04-23T00:58:34.285Z,98569.00
2023-04-23T01:00:15.614Z,98573.00
2023-04-23T01:01:48.348Z,98576.00
2023-04-23T01:03:22.990Z,98582.00
2023-04-23T01:04:59.408Z,98580.00
2023-04-23T01:06:33.055Z,98573.00
2023-04-23T01:08:07.114Z,98576.00
2023-04-23T01:09:39.993Z,98572.00
2023-04-23T01:11:16.540Z,98576.00
2023-04-23T01:12:50.217Z,98573.00
2023-04-23T01:14:22.569Z,98568.00
2023-04-23T01:15:56.189Z,98564.00
2023-04-23T01:17:30.941Z,98561.00
2023-04-23T01:19:04.878Z,98564.00
2023-04-23T01:20:39.778Z,98568.00
2023-04-23T01:22:15.511Z,98566.00
2023-04-23T01:23:48.858Z,98562.00
2023-04-23T01:25:22.304Z,98564.00
2023-04-23T01:26:54.810Z,98564.00
2023-04-23T01:28:28.474Z,98562.00
2023-04-23T01:30:04.664Z,98564.00
2023-04-23T01:31:38.493Z,98564.00
2023-04-23T01:33:11.437Z,98557.00
2023-04-23T01:34:47.785Z,98561.00
2023-04-23T01:36:23.106Z,98549.00
2023-04-23T01:38:04.082Z,98562.00
2023-04-23T01:39:37.269Z,98562.00
2023-04-23T01:41:10.534Z,98568.00
2023-04-23T01:42:44.099Z,98552.00
2023-04-23T01:44:16.724Z,98560.00
2023-04-23T01:45:50.074Z,98572.00
2023-04-23T01:47:22.704Z,98574.00
2023-04-23T01:48:56.052Z,98572.00
2023-04-23T01:50:29.930Z,98562.00
2023-04-23T01:52:04.101Z,98560.00
2023-04-23T01:53:37.684Z,98558.00
2023-04-23T01:55:11.289Z,98563.00
2023-04-23T01:56:44.580Z,98557.00
2023-04-23T01:58:16.854Z,98571.00
2023-04-23T01:59:50.006Z,98563.00
2023-04-23T02:01:23.376Z,98565.00
2023-04-23T02:02:56.766Z,98566.00
2023-04-23T02:04:31.496Z,98573.00
2023-04-23T02:06:05.433Z,98581.00
2023-04-23T02:07:38.113Z,98577.00
2023-04-23T02:09:12.839Z,98575.00
2023-04-23T02:10:46.153Z,98573.00
2023-04-23T02:12:19.496Z,98576.00
2023-04-23T02:13:52.657Z,98580.00
2023-04-23T02:15:26.657Z,98569.00
2023-04-23T02:16:59.827Z,98563.00
2023-04-23T02:18:31.980Z,98578.00
2023-04-23T02:20:09.601Z,98570.00
2023-04-23T02:21:42.944Z,98575.00
2023-04-23T02:23:15.453Z,98570.00
2023-04-23T02:24:50.855Z,98572.00
2023-04-23T02:26:25.021Z,98568.00
2023-04-23T02:27:59.710Z,98573.00
2023-04-23T02:29:31.911Z,98561.00
2023-04-23T02:31:06.539Z,98568.00
2023-04-23T02:32:39.964Z,98574.00
2023-04-23T02:34:13.147Z,98574.00
2023-04-23T02:35:46.666Z,98578.00
2023-04-23T02:37:19.909Z,98571.00
2023-04-23T02:38:53.083Z,98567.00
2023-04-23T02:40:26.617Z,98568.00
2023-04-23T02:41:59.990Z,98571.00
2023-04-23T02:43:34.358Z,98569.00
2023-04-23T02:45:09.286Z,98575.00
2023-04-23T02:46:42.389Z,98575.00
2023-04-23T02:48:18.933Z,98579.00
2023-04-23T02:49:52.148Z,98569.00
2023-04-23T02:51:26.005Z,98570.00
2023-04-23T02:52:58.381Z,98570.00
2023-04-23T02:54:32.580Z,98569.00
2023-04-23T02:56:08.143Z,98565.00
2023-04-23T02:57:41.737Z,98568.00
2023-04-23T02:59:15.041Z,98567.00
2023-04-23T03:00:47.352Z,98570.00
2023-04-23T03:02:20.694Z,98569.00
2023-04-23T03:03:54.842Z,98563.00
2023-04-23T03:05:28.322Z,98566.00
2023-04-23T03:07:01.474Z,98562.00
2023-04-23T03:08:35.183Z,98559.00
2023-04-23T03:10:09.706Z,98571.00
2023-04-23T03:11:44.351Z,98568.00
2023-04-23T03:13:19.562Z,98564.00
2023-04-23T03:14:52.753Z,98562.00
2023-04-23T03:16:31.262Z,98569.00
2023-04-23T03:18:06.028Z,98568.00
2023-04-23T03:19:38.172Z,98564.00
2023-04-23T03:21:12.020Z,98581.00
2023-04-23T03:22:45.826Z,98575.00
2023-04-23T03:24:18.648Z,98585.00
2023-04-23T03:25:51.850Z,98574.00
2023-04-23T03:27:26.078Z,98580.00
2023-04-23T03:28:59.985Z,98567.00
2023-04-23T03:30:34.135Z,98576.00
2023-04-23T03:32:07.662Z,98571.00
2023-04-23T03:33:40.876Z,98561.00
2023-04-23T03:35:14.150Z,98566.00
2023-04-23T03:36:51.338Z,98566.00
2023-04-23T03:38:24.613Z,98562.00
2023-04-23T03:39:59.327Z,98571.00
2023-04-23T03:41:31.843Z,98566.00
2023-04-23T03:43:06.450Z,98565.00
2023-04-23T03:44:58.066Z,98560.00
2023-04-23T03:46:32.831Z,98564.00
2023-04-23T03:48:05.477Z,98558.00
2023-04-23T03:49:40.214Z,98554.00
2023-04-23T03:51:13.908Z,98555.00
2023-04-23T03:52:53.247Z,98559.00
2023-04-23T03:54:46.418Z,98547.00
2023-04-23T03:56:24.592Z,98554.00
2023-04-23T03:58:13.725Z,98547.00
2023-04-23T03:59:50.639Z,98560.00
2023-04-23T04:01:23.920Z,98553.00
2023-04-23T04:02:57.237Z,98550.00
2023-04-23T04:04:33.912Z,98553.00
2023-04-23T04:06:08.053Z,98551.00
2023-04-23T04:07:41.043Z,98546.00
2023-04-23T04:09:14.188Z,98552.00
2023-04-23T04:10:47.755Z,98550.00
2023-04-23T04:12:20.946Z,98561.00
2023-04-23T04:13:55.390Z,98551.00
2023-04-23T04:15:28.555Z,98559.00
2023-04-23T04:17:00.982Z,98552.00
2023-04-23T04:18:34.123Z,98553.00
2023-04-23T04:20:10.276Z,98555.00
2023-04-23T04:21:43.477Z,98556.00
2023-04-23T04:23:16.590Z,98558.00
2023-04-23T04:24:51.965Z,98550.00
2023-04-23T04:26:25.268Z,98553.00
2023-04-23T04:27:58.436Z,98564.00
2023-04-23T04:29:33.406Z,98553.00
2023-04-23T04:31:08.510Z,98558.00
2023-04-23T04:32:42.094Z,98557.00
2023-04-23T04:34:15.527Z,98552.00
2023-04-23T04:35:48.909Z,98555.00
2023-04-23T04:37:22.190Z,98557.00
2023-04-23T04:38:58.440Z,98543.00
2023-04-23T04:40:31.568Z,98549.00
2023-04-23T04:42:07.141Z,98548.00
2023-04-23T04:43:40.290Z,98550.00
2023-04-23T04:45:14.855Z,98553.00
2023-04-23T04:46:48.191Z,98541.00
2023-04-23T04:48:21.565Z,98543.00
2023-04-23T04:49:57.488Z,98542.00
2023-04-23T04:51:30.723Z,98548.00
2023-04-23T04:53:03.164Z,98548.00
2023-04-23T04:54:36.304Z,98555.00
2023-04-23T04:56:10.045Z,98552.00
2023-04-23T04:57:43.294Z,98547.00
2023-04-23T04:59:15.474Z,98545.00
2023-04-23T05:00:51.792Z,98536.00
2023-04-23T05:02:26.516Z,98541.00
2023-04-23T05:04:01.185Z,98546.00
2023-04-23T05:05:35.205Z,98548.00
2023-04-23T05:07:08.611Z,98548.00
2023-04-23T05:08:42.705Z,98546.00
2023-04-23T05:10:16.640Z,98543.00
2023-04-23T05:11:50.072Z,98534.00
2023-04-23T05:13:23.597Z,98543.00
2023-04-23T05:14:55.694Z,98540.00
2023-04-23T05:16:30.977Z,98545.00
2023-04-23T05:18:07.803Z,98537.00
2023-04-23T05:19:42.143Z,98550.00
2023-04-23T05:21:15.993Z,98546.00
2023-04-23T05:22:49.707Z,98539.00
2023-04-23T05:24:22.846Z,98549.00
2023-04-23T05:25:57.073Z,98543.00
2023-04-23T05:27:30.405Z,98545.00
2023-04-23T05:29:04.097Z,98545.00
2023-04-23T05:30:37.372Z,98546.00
2023-04-23T05:32:27.183Z,98546.00
2023-04-23T05:34:00.275Z,98551.00
2023-04-23T05:35:33.440Z,98551.00
2023-04-23T05:37:06.840Z,98547.00
2023-04-23T05:38:40.307Z,98553.00
2023-04-23T05:40:13.715Z,98556.00
2023-04-23T05:41:46.900Z,98547.00
2023-04-23T05:43:20.127Z,98544.00
2023-04-23T05:44:53.401Z,98548.00
2023-04-23T05:46:27.278Z,98546.00
2023-04-23T05:48:01.821Z,98548.00
2023-04-23T05:49:35.036Z,98543.00
2023-04-23T05:51:08.709Z,98541.00
2023-04-23T05:52:40.881Z,98542.00
2023-04-23T05:54:14.108Z,98545.00
2023-04-23T05:55:47.260Z,98534.00
2023-04-23T05:57:20.444Z,98540.00
2023-04-23T05:58:54.366Z,98531.00
2023-04-23T06:00:27.693Z,98522.00
2023-04-23T06:02:01.101Z,98524.00
2023-04-23T06:03:35.128Z,98537.00
2023-04-23T06:05:09.644Z,98535.00
2023-04-23T06:06:44.076Z,98535.00
2023-04-23T06:08:17.402Z,98531.00
2023-04-23T06:09:50.607Z,98521.00
2023-04-23T06:11:24.239Z,98527.00
2023-04-23T06:12:57.697Z,98527.00
2023-04-23T06:14:30.813Z,98535.00
2023-04-23T06:16:04.268Z,98529.00
2023-04-23T06:17:37.989Z,98530.00
2023-04-23T06:19:12.729Z,98528.00
2023-04-23T06:20:45.948Z,98529.00
2023-04-23T06:22:19.182Z,98530.00
2023-04-23T06:23:52.320Z,98528.00
2023-04-23T06:25:25.741Z,98535.00
2023-04-23T06:26:58.884Z,98525.00
2023-04-23T06:28:33.509Z,98528.00
2023-04-23T06:30:42.007Z,98531.00
2023-04-23T06:32:17.220Z,98530.00
2023-04-23T06:33:51.581Z,98535.00
2023-04-23T06:35:26.119Z,98519.00
2023-04-23T06:37:00.144Z,98519.00
2023-04-23T06:38:33.470Z,98530.00
2023-04-23T06:40:08.012Z,98525.00
2023-04-23T06:41:41.307Z,98524.00
2023-04-23T06:43:26.924Z,98519.00
2023-04-23T06:45:25.977Z,98514.00
2023-04-23T06:46:59.275Z,98509.00
2023-04-23T06:48:33.610Z,98520.00
2023-04-23T06:50:09.041Z,98515.00
2023-04-23T06:51:42.685Z,98509.00
2023-04-23T06:53:15.955Z,98517.00
2023-04-23T06:54:49.176Z,98508.00
2023-04-23T06:56:22.681Z,98499.00
2023-04-23T06:57:56.007Z,98503.00
2023-04-23T06:59:29.576Z,98503.00
2023-04-23T07:01:05.049Z,98507.00
2023-04-23T07:02:40.461Z,98504.00
2023-04-23T07:04:12.901Z,98508.00
2023-04-23T07:05:46.081Z,98499.00
2023-04-23T07:07:20.582Z,98506.00
2023-04-23T07:08:53.660Z,98512.00
2023-04-23T07:10:26.847Z,98504.00
2023-04-23T07:11:59.965Z,98501.00
2023-04-23T07:13:32.187Z,98505.00
2023-04-23T07:15:07.531Z,98503.00
2023-04-23T07:16:40.945Z,98504.00
2023-04-23T07:18:14.408Z,98504.00
2023-04-23T07:19:47.950Z,98518.00
2023-04-23T07:21:21.390Z,98507.00
2023-04-23T07:22:55.245Z,98504.00
2023-04-23T07:24:28.335Z,98509.00
2023-04-23T07:26:00.541Z,98503.00
2023-04-23T07:27:33.666Z,98514.00
2023-04-23T07:29:07.857Z,98498.00
2023-04-23T07:30:41.288Z,98496.00
2023-04-23T07:32:14.506Z,98496.00
2023-04-23T07:33:47.617Z,98497.00
2023-04-23T07:35:20.935Z,98486.00
2023-04-23T07:36:54.052Z,98489.00
2023-04-23T07:38:28.609Z,98489.00
2023-04-23T07:40:02.263Z,98489.00
2023-04-23T07:41:35.814Z,98480.00
2023-04-23T07:43:09.004Z,98483.00
2023-04-23T07:44:42.155Z,98489.00
2023-04-23T07:46:15.375Z,98475.00
2023-04-23T07:47:51.374Z,98481.00
2023-04-23T07:49:25.445Z,98483.00
2023-04-23T07:50:58.617Z,98478.00
2023-04-23T07:52:31.819Z,98487.00
2023-04-23T07:54:07.021Z,98487.00
2023-04-23T07:55:40.419Z,98487.00
2023-04-23T07:57:13.728Z,98489.00
2023-04-23T07:58:46.830Z,98487.00
2023-04-23T08:00:20.380Z,98484.00
2023-04-23T08:01:53.590Z,98474.00
2023-04-23T08:03:27.261Z,98477.00
2023-04-23T08:05:01.124Z,98478.00
2023-04-23T08:06:35.508Z,98477.00
2023-04-23T08:08:09.166Z,98463.00
2023-04-23T08:09:43.939Z,98475.00
2023-04-23T08:11:17.563Z,98469.00
2023-04-23T08:12:50.824Z,98459.00
2023-04-23T08:14:24.048Z,98469.00
2023-04-23T08:15:57.200Z,98464.00
2023-04-23T08:17:30.631Z,98467.00
2023-04-23T08:19:06.170Z,98465.00
2023-04-23T08:20:40.950Z,98470.00
2023-04-23T08:22:16.250Z,98467.00
2023-04-23T08:23:49.377Z,98464.00
2023-04-23T08:25:24.238Z,98458.00
2023-04-23T08:26:57.470Z,98459.00
2023-04-23T08:28:30.923Z,98457.00
2023-04-23T08:30:04.492Z,98444.00
2023-04-23T08:31:37.947Z,98459.00
2023-04-23T08:33:11.177Z,98441.00
2023-04-23T08:34:44.394Z,98446.00
2023-04-23T08:36:17.518Z,98460.00
2023-04-23T08:37:50.699Z,98455.00
2023-04-23T08:39:23.839Z,98456.00
2023-04-23T08:41:02.158Z,98464.00
2023-04-23T08:42:44.566Z,98460.00
2023-04-23T08:44:20.644Z,98471.00
2023-04-23T08:45:55.419Z,98461.00
2023-04-23T08:47:30.891Z,98457.00
2023-04-23T08:49:06.085Z,98457.00
2023-04-23T08:50:44.142Z,98460.00
2023-04-23T08:52:24.428Z,98466.00
2023-04-23T08:54:00.653Z,98468.00
2023-04-23T08:55:36.370Z,98463.00
2023-04-23T08:57:11.991Z,98468.00
2023-04-23T08:58:48.368Z,98464.00
2023-04-23T09:00:27.802Z,98469.00
2023-04-23T09:02:07.760Z,98461.00
2023-04-23T09:03:43.503Z,98463.00
2023-04-23T09:05:17.436Z,98459.00
2023-04-23T09:06:50.877Z,98455.00
2023-04-23T09:08:24.356Z,98451.00
2023-04-23T09:09:57.049Z,98466.00
2023-04-23T09:11:32.349Z,98464.00
2023-04-23T09:13:07.225Z,98455.00
2023-04-23T09:14:44.441Z,98446.00
2023-04-23T09:16:21.441Z,98448.00
2023-04-23T09:17:54.724Z,98437.00
2023-04-23T09:19:31.262Z,98436.00
2023-04-23T09:21:06.568Z,98435.00
2023-04-23T09:22:46.718Z,98440.00
2023-04-23T09:24:24.141Z,98443.00
2023-04-23T09:25:58.127Z,98441.00
2023-04-23T09:27:31.283Z,98436.00
2023-04-23T09:29:17.292Z,98437.00
2023-04-23T09:30:50.617Z,98433.00
2023-04-23T09:32:32.908Z,98440.00
2023-04-23T09:34:08.283Z,98437.00
2023-04-23T09:35:43.212Z,98438.00
2023-04-23T09:37:19.975Z,98435.00
2023-04-23T09:38:58.405Z,98428.00
2023-04-23T09:40:31.769Z,98424.00
2023-04-23T09:42:08.522Z,98431.00
2023-04-23T09:43:42.974Z,98422.00
2023-04-23T09:45:18.187Z,98418.00
2023-04-23T09:46:51.933Z,98427.00
2023-04-23T09:48:25.817Z,98433.00
2023-04-23T09:50:00.352Z,98423.00
2023-04-23T09:51:33.797Z,98430.00
2023-04-23T09:53:08.838Z,98429.00
2023-04-23T09:54:43.307Z,98436.00
2023-04-23T09:56:16.818Z,98426.00
2023-04-23T09:57:50.116Z,98425.00
2023-04-23T09:59:39.945Z,98421.00
2023-04-23T10:01:30.444Z,98413.00
2023-04-23T10:03:04.318Z,98417.00
2023-04-23T10:04:39.450Z,98413.00
2023-04-23T10:06:25.947Z,98413.00
2023-04-23T10:08:12.075Z,98425.00
2023-04-23T10:09:46.291Z,98417.00
2023-04-23T10:11:21.099Z,98402.00
2023-04-23T10:12:56.493Z,98415.00
2023-04-23T10:14:30.651Z,98414.00
2023-04-23T10:16:20.612Z,98415.00
2023-04-23T10:17:59.082Z,98418.00
2023-04-23T10:19:33.896Z,98412.00
2023-04-23T10:21:08.129Z,98418.00
2023-04-23T10:22:45.737Z,98417.00
2023-04-23T10:24:20.693Z,98412.00
2023-04-23T10:25:56.381Z,98419.00
2023-04-23T10:27:44.155Z,98409.00
2023-04-23T10:29:29.745Z,98416.00
2023-04-23T10:31:05.490Z,98408.00
2023-04-23T10:32:39.455Z,98409.00
2023-04-23T10:34:14.396Z,98404.00
2023-04-23T10:35:48.776Z,98401.00
2023-04-23T10:37:23.230Z,98406.00
2023-04-23T10:39:00.661Z,98406.00
2023-04-23T10:40:38.992Z,98405.00
2023-04-23T10:42:13.649Z,98393.00
2023-04-23T10:43:46.733Z,98396.00
2023-04-23T10:45:25.190Z,98397.00
2023-04-23T10:47:01.607Z,98394.00
2023-04-23T10:48:52.864Z,98395.00
2023-04-23T10:50:29.607Z,98376.00
2023-04-23T10:53:43.657Z,98385.00
2023-04-23T10:55:20.532Z,98382.00
2023-04-23T10:57:03.129Z,98381.00
2023-04-23T10:58:52.322Z,98376.00
2023-04-23T11:00:26.304Z,98376.00
2023-04-23T11:02:08.856Z,98372.00
2023-04-23T11:03:44.581Z,98366.00
2023-04-23T11:05:18.593Z,98366.00
2023-04-23T11:07:06.722Z,98369.00
2023-04-23T11:08:52.449Z,98359.00
2023-04-23T11:10:26.573Z,98354.00
2023-04-23T11:12:00.220Z,98357.00
2023-04-23T11:13:33.420Z,98359.00
2023-04-23T11:15:14.707Z,98353.00
2023-04-23T11:16:50.389Z,98338.00
2023-04-23T11:18:25.215Z,98341.00
2023-04-23T11:20:15.487Z,98345.00
2023-04-23T11:22:05.979Z,98353.00
2023-04-23T11:23:39.277Z,98347.00
2023-04-23T11:25:14.818Z,98341.00
2023-04-23T11:26:52.411Z,98329.00
2023-04-23T11:28:25.582Z,98343.00
2023-04-23T11:30:00.075Z,98330.00
2023-04-23T11:31:34.079Z,98332.00
2023-04-23T11:33:07.926Z,98328.00
2023-04-23T11:34:43.715Z,98332.00
2023-04-23T11:36:17.116Z,98328.00
2023-04-23T11:37:51.883Z,98332.00
2023-04-23T11:39:24.531Z,98333.00
2023-04-23T11:40:58.073Z,98335.00
2023-04-23T11:42:31.724Z,98331.00
2023-04-23T11:44:06.536Z,98326.00
2023-04-23T11:45:39.945Z,98326.00
2023-04-23T11:47:16.197Z,98318.00
2023-04-23T11:48:50.458Z,98314.00
2023-04-23T11:50:27.031Z,98322.00
2023-04-23T11:52:02.589Z,98331.00
2023-04-23T11:53:37.295Z,98331.00
2023-04-23T11:55:11.145Z,98338.00
2023-04-23T11:56:44.756Z,98335.00
2023-04-23T11:58:19.406Z,98337.00
2023-04-23T11:59:55.020Z,98329.00
2023-04-23T12:01:27.232Z,98328.00
2023-04-23T12:03:02.656Z,98331.00
2023-04-23T12:04:36.952Z,98331.00
2023-04-23T12:06:11.770Z,98327.00
2023-04-23T12:07:48.954Z,98332.00
2023-04-23T12:09:26.171Z,98333.00
2023-04-23T12:11:03.390Z,98335.00
2023-04-23T12:12:36.706Z,98342.00
2023-04-23T12:14:11.821Z,98338.00
2023-04-23T12:15:50.348Z,98329.00
2023-04-23T12:17:23.550Z,98322.00
2023-04-23T12:18:56.706Z,98314.00
2023-04-23T12:20:32.172Z,98313.00
2023-04-23T12:22:08.111Z,98305.00
2023-04-23T12:23:44.696Z,98319.00
2023-04-23T12:25:24.180Z,98313.00
2023-04-23T12:27:00.890Z,98315.00
2023-04-23T12:28:34.243Z,98308.00
2023-04-23T12:30:09.448Z,98302.00
2023-04-23T12:31:45.209Z,98294.00
2023-04-23T12:33:19.405Z,98286.00
2023-04-23T12:34:54.304Z,98292.00
2023-04-23T12:36:30.081Z,98294.00
2023-04-23T12:38:05.769Z,98285.00
2023-04-23T12:39:38.902Z,98269.00
2023-04-23T12:41:13.462Z,98280.00
2023-04-23T12:42:46.950Z,98273.00
2023-04-23T12:44:19.804Z,98263.00
2023-04-23T12:45:53.737Z,98267.00
2023-04-23T12:47:27.023Z,98270.00
2023-04-23T12:49:00.754Z,98259.00
2023-04-23T12:50:49.706Z,98256.00
2023-04-23T12:52:23.279Z,98256.00
2023-04-23T12:53:56.686Z,98252.00
2023-04-23T12:55:29.838Z,98242.00
2023-04-23T12:57:06.652Z,98248.00
2023-04-23T12:58:40.081Z,98238.00
2023-04-23T13:00:14.627Z,98239.00
2023-04-23T13:01:47.879Z,98231.00
2023-04-23T13:03:25.663Z,98234.00
2023-04-23T13:05:01.269Z,98238.00
2023-04-23T13:06:35.013Z,98231.00
2023-04-23T13:08:08.346Z,98241.00
2023-04-23T13:09:41.733Z,98232.00
2023-04-23T13:11:15.058Z,98222.00
2023-04-23T13:12:49.656Z,98227.00
2023-04-23T13:14:22.775Z,98226.00
2023-04-23T13:15:56.051Z,98228.00
2023-04-23T13:17:29.567Z,98230.00
2023-04-23T13:19:03.136Z,98228.00
2023-04-23T13:20:36.528Z,98235.00
2023-04-23T13:22:09.686Z,98218.00
2023-04-23T13:23:41.994Z,98219.00
2023-04-23T13:25:15.328Z,98224.00
2023-04-23T13:26:48.573Z,98221.00
2023-04-23T13:28:23.214Z,98211.00
2023-04-23T13:29:56.781Z,98202.00
2023-04-23T13:31:31.203Z,98193.00
2023-04-23T13:33:05.053Z,98193.00
2023-04-23T13:34:38.499Z,98187.00
2023-04-23T13:36:15.411Z,98183.00
2023-04-23T13:37:48.986Z,98176.00
2023-04-23T13:39:23.601Z,98178.00
2023-04-23T13:40:56.961Z,98176.00
2023-04-23T13:42:30.299Z,98171.00
2023-04-23T13:44:05.311Z,98168.00
2023-04-23T13:45:38.618Z,98167.00
2023-04-23T13:47:12.009Z,98177.00
2023-04-23T13:48:45.505Z,98173.00
2023-04-23T13:50:19.030Z,98171.00
2023-04-23T13:51:54.020Z,98164.00
2023-04-23T13:53:28.667Z,98159.00
2023-04-23T13:55:04.015Z,98156.00
2023-04-23T13:56:37.567Z,98156.00
2023-04-23T13:58:12.422Z,98157.00
2023-04-23T13:59:47.186Z,98155.00
2023-04-23T14:01:20.821Z,98161.00
2023-04-23T14:02:54.143Z,98150.00
2023-04-23T14:04:27.798Z,98156.00
2023-04-23T14:06:02.565Z,98158.00
2023-04-23T14:07:35.944Z,98148.00
2023-04-23T14:09:09.233Z,98153.00
2023-04-23T14:10:43.781Z,98151.00
2023-04-23T14:12:16.381Z,98148.00
2023-04-23T14:13:49.812Z,98144.00
2023-04-23T14:15:24.822Z,98152.00
2023-04-23T14:16:58.068Z,98148.00
2023-04-23T14:18:33.004Z,98141.00
2023-04-23T14:20:08.080Z,98144.00
2023-04-23T14:21:41.691Z,98147.00
2023-04-23T14:23:52.430Z,98136.00
2023-04-23T14:25:31.607Z,98123.00
2023-04-23T14:27:05.928Z,98133.00
2023-04-23T14:28:46.041Z,98123.00
2023-04-23T14:30:24.831Z,98117.00
2023-04-23T14:31:59.701Z,98111.00
2023-04-23T14:33:33.497Z,98109.00
2023-04-23T14:35:07.658Z,98117.00
2023-04-23T14:36:41.206Z,98110.00
2023-04-23T14:38:14.857Z,98112.00
2023-04-23T14:39:48.455Z,98109.00
2023-04-23T14:41:24.952Z,98095.00
2023-04-23T14:43:08.089Z,98099.00
2023-04-23T14:44:48.471Z,98105.00
2023-04-23T14:46:21.838Z,98097.00
2023-04-23T14:47:56.460Z,98093.00
2023-04-23T14:49:29.716Z,98094.00
2023-04-23T14:51:03.056Z,98093.00
2023-04-23T14:52:36.401Z,98089.00
2023-04-23T14:54:10.212Z,98089.00
2023-04-23T14:55:43.630Z,98085.00
2023-04-23T14:57:17.168Z,98087.00
2023-04-23T14:58:50.896Z,98101.00
2023-04-23T15:00:24.538Z,98091.00
2023-04-23T15:02:00.350Z,98081.00
2023-04-23T15:03:35.398Z,98087.00
2023-04-23T15:05:10.099Z,98093.00
2023-04-23T15:06:43.453Z,98081.00
2023-04-23T15:08:17.060Z,98071.00
2023-04-23T15:09:50.565Z,98086.00
2023-04-23T15:11:24.220Z,98078.00
2023-04-23T15:13:07.704Z,98089.00
2023-04-23T15:14:44.660Z,98091.00
2023-04-23T15:16:46.840Z,98088.00
2023-04-23T15:18:22.261Z,98089.00
2023-04-23T15:20:00.207Z,98092.00
2023-04-23T15:21:34.068Z,98086.00
2023-04-23T15:23:07.612Z,98087.00
2023-04-23T15:24:41.878Z,98087.00
2023-04-23T15:26:15.977Z,98083.00
2023-04-23T15:27:56.705Z,98086.00
2023-04-23T15:29:30.516Z,98083.00
2023-04-23T15:31:03.839Z,98082.00
2023-04-23T15:32:37.128Z,98084.00
2023-04-23T15:34:12.009Z,98082.00
2023-04-23T15:35:46.996Z,98088.00
2023-04-23T15:37:21.053Z,98080.00
2023-04-23T15:38:54.391Z,98081.00
2023-04-23T15:40:30.100Z,98071.00
2023-04-23T15:42:04.420Z,98064.00
2023-04-23T15:43:37.792Z,98060.00
2023-04-23T15:45:12.475Z,98068.00
2023-04-23T15:46:46.135Z,98055.00
2023-04-23T15:48:19.389Z,98060.00
2023-04-23T15:49:52.602Z,98064.00
2023-04-23T15:51:27.484Z,98054.00
2023-04-23T15:53:01.515Z,98052.00
2023-04-23T15:54:35.061Z,98053.00
2023-04-23T15:56:08.416Z,98063.00
2023-04-23T15:57:41.652Z,98062.00
2023-04-23T15:59:14.974Z,98059.00
2023-04-23T16:00:48.542Z,98054.00
2023-04-23T16:02:22.078Z,98056.00
2023-04-23T16:04:09.429Z,98046.00
2023-04-23T16:05:44.706Z,98044.00
2023-04-23T16:07:19.538Z,98054.00
2023-04-23T16:08:52.881Z,98044.00
2023-04-23T16:10:27.769Z,98040.00
2023-04-23T16:12:01.101Z,98047.00
2023-04-23T16:13:34.648Z,98039.00
2023-04-23T16:16:43.126Z,98040.00
2023-04-23T16:18:16.550Z,98040.00
2023-04-23T16:19:50.133Z,98043.00
2023-04-23T16:21:23.826Z,98044.00
2023-04-23T16:22:58.459Z,98043.00
2023-04-23T16:24:31.660Z,98043.00
2023-04-23T16:26:08.556Z,98041.00
2023-04-23T16:27:42.240Z,98034.00
2023-04-23T16:29:22.276Z,98035.00
2023-04-23T16:30:56.544Z,98029.00
2023-04-23T16:32:29.933Z,98031.00
2023-04-23T16:34:03.337Z,98035.00
2023-04-23T16:35:37.102Z,98029.00
2023-04-23T16:37:12.812Z,98023.00
2023-04-23T16:38:49.458Z,98018.00
2023-04-23T16:40:23.062Z,98021.00
2023-04-23T16:41:56.337Z,98018.00
2023-04-23T16:43:29.607Z,98024.00
2023-04-23T16:45:02.964Z,98023.00
2023-04-23T16:46:36.394Z,98011.00
2023-04-23T16:48:13.072Z,98016.00
2023-04-23T16:49:46.559Z,98013.00
2023-04-23T16:51:18.861Z,98016.00
2023-04-23T16:52:52.182Z,98016.00
2023-04-23T16:54:26.903Z,98006.00
2023-04-23T16:56:00.545Z,98005.00
2023-04-23T16:57:34.814Z,98007.00
2023-04-23T16:59:08.145Z,98006.00
2023-04-23T17:00:41.379Z,98013.00
2023-04-23T17:02:14.994Z,98023.00
2023-04-23T17:03:48.421Z,98010.00
2023-04-23T17:05:26.373Z,98005.00
2023-04-23T17:06:59.701Z,98009.00
2023-04-23T17:08:33.187Z,97996.00
2023-04-23T17:10:09.635Z,97993.00
2023-04-23T17:11:43.063Z,97999.00
2023-04-23T17:13:16.347Z,97997.00
2023-04-23T17:14:49.689Z,97996.00
2023-04-23T17:16:25.347Z,98001.00
2023-04-23T17:17:58.643Z,98008.00
2023-04-23T17:19:32.144Z,98003.00
2023-04-23T17:21:05.552Z,98011.00
2023-04-23T17:22:38.912Z,98000.00
2023-04-23T17:24:12.268Z,98007.00
2023-04-23T17:25:47.113Z,98001.00
2023-04-23T17:27:20.420Z,98003.00
2023-04-23T17:28:53.719Z,97992.00
2023-04-23T17:30:26.386Z,97996.00
2023-04-23T17:31:59.980Z,97998.00
2023-04-23T17:33:33.652Z,97993.00
2023-04-23T17:35:10.908Z,97987.00
2023-04-23T17:36:44.536Z,97984.00
2023-04-23T17:38:20.374Z,97989.00
2023-04-23T17:39:54.877Z,97997.00
2023-04-23T17:41:29.611Z,97992.00
2023-04-23T17:43:02.736Z,97992.00
2023-04-23T17:44:36.800Z,97996.00
2023-04-23T17:46:10.192Z,97998.00
2023-04-23T17:47:43.484Z,98003.00
2023-04-23T17:49:17.069Z,98001.00
2023-04-23T17:50:51.253Z,97998.00
2023-04-23T17:52:24.579Z,97993.00
2023-04-23T17:53:59.323Z,97990.00
2023-04-23T17:55:33.856Z,97986.00
2023-04-23T17:57:09.764Z,97986.00
2023-04-23T17:58:43.156Z,97976.00
2023-04-23T18:00:18.174Z,97978.00
2023-04-23T18:01:51.600Z,97970.00
2023-04-23T18:03:26.544Z,97976.00
2023-04-23T18:05:00.178Z,97973.00
2023-04-23T18:06:33.461Z,97977.00
2023-04-23T18:08:08.140Z,97966.00
2023-04-23T18:09:41.510Z,97966.00
2023-04-23T18:11:14.860Z,97955.00
2023-04-23T18:12:49.677Z,97950.00
2023-04-23T18:14:23.304Z,97956.00
2023-04-23T18:15:56.991Z,97941.00
2023-04-23T18:17:30.722Z,97948.00
2023-04-23T18:19:04.114Z,97962.00
2023-04-23T18:20:38.893Z,97947.00
2023-04-23T18:22:12.388Z,97943.00
2023-04-23T18:23:46.117Z,97939.00
2023-04-23T18:25:19.367Z,97938.00
2023-04-23T18:26:54.564Z,97930.00
2023-04-23T18:28:29.267Z,97925.00
2023-04-23T18:30:02.555Z,97940.00
2023-04-23T18:31:36.548Z,97940.00
2023-04-23T18:33:32.711Z,97939.00
2023-04-23T18:35:08.016Z,97945.00
2023-04-23T18:36:44.900Z,97942.00
2023-04-23T18:38:29.986Z,97941.00